createdAt,value
2022-08-23T17:19:10.000Z,3.7
2022-08-23T17:20:26.000Z,3.8
2022-08-23T17:25:55.000Z,4.5
2022-08-23T17:34:09.000Z,4.8
2022-08-23T17:36:54.000Z,6
2022-08-23T17:42:23.000Z,4.7
2022-08-23T17:45:08.000Z,5.2
2022-08-23T17:46:37.000Z,5.4
2022-08-23T17:50:37.000Z,5.4
2022-08-23T17:58:51.000Z,5.6
2022-08-23T18:07:05.000Z,6.3
2022-08-23T18:15:19.000Z,7.3
2022-08-23T18:34:32.000Z,8.7
2022-08-23T18:41:30.000Z,9.1
2022-08-23T18:48:15.000Z,10.8
2022-08-23T18:56:29.000Z,9.3
2022-08-23T19:36:23.000Z,10
2022-08-23T20:03:49.000Z,12.2
2022-08-23T20:35:16.000Z,8.7
2022-08-23T20:38:00.000Z,8.3
2022-08-23T21:13:59.000Z,7.4
2022-08-23T21:15:13.000Z,7.9
2022-08-23T21:16:27.000Z,8.2
2022-08-23T21:17:41.000Z,8.6
2022-08-23T21:18:55.000Z,9
2022-08-23T21:20:09.000Z,9
2022-08-23T21:21:24.000Z,9
2022-08-23T21:22:38.000Z,9
2022-08-23T21:23:52.000Z,9.6
2022-08-23T21:25:06.000Z,8.9
2022-08-23T21:26:20.000Z,8.4
2022-08-23T21:27:34.000Z,8.6
2022-08-23T21:28:48.000Z,8.7
2022-08-23T21:30:02.000Z,7.8
2022-08-23T21:31:17.000Z,8.4
2022-08-23T21:32:31.000Z,7.8
2022-08-23T21:33:45.000Z,7.9
2022-08-23T21:34:59.000Z,8.4
2022-08-23T21:36:13.000Z,7.7
2022-08-23T21:37:27.000Z,7.8
2022-08-23T21:38:40.000Z,7.7
2022-08-23T21:39:54.000Z,7.7
2022-08-23T21:41:08.000Z,8
2022-08-23T21:42:22.000Z,7.4
2022-08-23T21:43:36.000Z,7.4
2022-08-23T21:44:50.000Z,7.2
2022-08-23T21:46:04.000Z,7.1
2022-08-23T21:47:18.000Z,7.6
2022-08-23T21:48:33.000Z,6.6
2022-08-23T21:49:47.000Z,6.7
2022-08-23T21:51:01.000Z,6.4
2022-08-23T21:52:15.000Z,6.3
2022-08-23T21:53:29.000Z,6.3
2022-08-23T21:54:43.000Z,6.4
2022-08-23T21:55:56.000Z,6.6
2022-08-23T21:57:10.000Z,6
2022-08-23T21:58:25.000Z,6
2022-08-23T21:59:39.000Z,6.1
2022-08-23T22:00:53.000Z,6.3
2022-08-23T22:02:07.000Z,6.4
2022-08-23T22:03:21.000Z,5.8
2022-08-23T22:04:34.000Z,6.7
2022-08-23T22:07:02.000Z,7
2022-08-23T22:08:16.000Z,7.1
2022-08-23T22:09:29.000Z,6.3
2022-08-23T22:10:42.000Z,6.6
2022-08-23T22:11:56.000Z,6.1
2022-08-23T22:13:10.000Z,6.1
2022-08-23T22:14:24.000Z,5.6
2022-08-23T22:15:39.000Z,6.4
2022-08-23T22:16:53.000Z,5.3
2022-08-23T22:18:07.000Z,5.4
2022-08-23T22:19:21.000Z,5.4
2022-08-23T22:20:35.000Z,5.6
2022-08-23T22:21:49.000Z,5.3
2022-08-23T22:23:03.000Z,4.9
2022-08-23T22:24:17.000Z,5.5
2022-08-23T22:25:32.000Z,5.2
2022-08-23T22:26:45.000Z,5.4
2022-08-23T22:27:59.000Z,5.7
2022-08-23T22:29:13.000Z,5.7
2022-08-23T22:30:27.000Z,5.2
2022-08-23T22:31:41.000Z,5.3
2022-08-23T22:32:55.000Z,4.9
2022-08-23T22:34:10.000Z,4.7
2022-08-23T22:35:24.000Z,5.1
2022-08-23T22:36:38.000Z,5.5
2022-08-23T22:37:52.000Z,4.4
2022-08-23T22:39:06.000Z,5.2
2022-08-23T22:40:20.000Z,5.7
2022-08-23T22:41:33.000Z,5.4
2022-08-23T22:44:01.000Z,5
2022-08-23T22:45:15.000Z,5.3
2022-08-23T22:46:28.000Z,5.6
2022-08-23T22:47:41.000Z,5.7
2022-08-23T22:48:55.000Z,5.7
2022-08-23T22:50:09.000Z,5.8
2022-08-23T22:51:23.000Z,5.5
2022-08-23T22:52:38.000Z,5.4
2022-08-23T22:53:52.000Z,5.5
2022-08-23T22:55:06.000Z,5.7
2022-08-23T22:56:20.000Z,5.6
2022-08-23T22:57:34.000Z,5.3
2022-08-23T22:58:48.000Z,5.3
2022-08-23T23:00:02.000Z,5.9
2022-08-23T23:01:16.000Z,5.6
2022-08-23T23:02:31.000Z,6
2022-08-23T23:03:45.000Z,6.1
2022-08-23T23:04:58.000Z,5.7
2022-08-23T23:06:12.000Z,5.9
2022-08-23T23:07:26.000Z,6.3
2022-08-23T23:08:40.000Z,6
2022-08-23T23:09:54.000Z,5.7
2022-08-23T23:11:09.000Z,6.3
2022-08-23T23:12:22.000Z,5.7
2022-08-23T23:13:35.000Z,5.5
2022-08-23T23:14:49.000Z,6.1
2022-08-23T23:16:02.000Z,5.8
2022-08-23T23:17:15.000Z,5.8
2022-08-23T23:18:29.000Z,6
2022-08-23T23:19:44.000Z,6
2022-08-23T23:20:58.000Z,5.9
2022-08-23T23:22:12.000Z,6.2
2022-08-23T23:23:26.000Z,5.5
2022-08-23T23:25:54.000Z,5.7
2022-08-23T23:27:08.000Z,5.8
2022-08-23T23:28:22.000Z,6.2
2022-08-23T23:29:37.000Z,5.9
2022-08-23T23:30:51.000Z,6
2022-08-23T23:32:05.000Z,6.3
2022-08-23T23:33:18.000Z,6.3
2022-08-23T23:34:32.000Z,6.2
2022-08-23T23:35:46.000Z,5.8
2022-08-23T23:37:00.000Z,6.1
2022-08-23T23:38:15.000Z,6.2
2022-08-23T23:39:29.000Z,6.3
2022-08-23T23:40:43.000Z,5.9
2022-08-23T23:41:57.000Z,6
2022-08-23T23:43:10.000Z,6
2022-08-23T23:44:23.000Z,6.4
2022-08-23T23:45:37.000Z,6.1
2022-08-23T23:46:52.000Z,6.5
2022-08-23T23:48:05.000Z,6.5
2022-08-23T23:49:18.000Z,6
2022-08-23T23:50:32.000Z,6.1
2022-08-23T23:51:46.000Z,6.3
2022-08-23T23:53:00.000Z,5.5
2022-08-23T23:54:14.000Z,6.1
2022-08-23T23:55:28.000Z,6.8
2022-08-23T23:56:43.000Z,6.5
2022-08-23T23:57:57.000Z,6.7
2022-08-23T23:59:11.000Z,6.7
